Time;durP1;ratioP1;P1;durP2;ratioP2;P2;SDS_P1;SDS_P2;PMS_P1;PMS_P2;Temp;Humidity;BMP_temperature;BMP_pressure;BME280_temperature;BME280_humidity;BME280_pressure;Samples;Min_cycle;Max_cycle;Signal;HPM_P1;HPM_P2
2021/06/20 00:01:06;;;;;;;15.13;13.63;;;25.60;99.90;;;;;;4934571;29;20210;-75
2021/06/20 00:03:32;;;;;;;13.40;12.00;;;25.60;99.90;;;;;;4935876;29;20611;-74
2021/06/20 00:06:06;;;;;;;16.80;15.13;;;25.60;99.90;;;;;;4935502;29;20206;-75
2021/06/20 00:08:33;;;;;;;20.17;17.70;;;25.60;99.90;;;;;;4948594;28;20243;-74
2021/06/20 00:11:00;;;;;;;18.97;16.97;;;25.60;99.90;;;;;;4935859;29;20210;-75
2021/06/20 00:13:27;;;;;;;17.47;15.67;;;25.60;99.90;;;;;;4935704;29;20218;-75
2021/06/20 00:15:54;;;;;;;15.67;14.07;;;25.60;99.90;;;;;;4935862;29;20191;-75
2021/06/20 00:18:22;;;;;;;16.90;14.40;;;25.50;99.90;;;;;;4935643;29;20223;-75
2021/06/20 00:20:49;;;;;;;15.43;13.97;;;25.50;99.90;;;;;;4925384;29;20210;-74
2021/06/20 00:23:18;;;;;;;16.10;14.53;;;25.50;99.90;;;;;;4935546;29;20207;-74
2021/06/20 00:25:44;;;;;;;18.30;15.87;;;25.50;99.90;;;;;;4934341;29;20266;-74
2021/06/20 00:28:11;;;;;;;15.83;14.33;;;25.50;99.90;;;;;;4935569;29;20277;-75
2021/06/20 00:30:39;;;;;;;15.93;13.80;;;25.30;99.90;;;;;;4934035;29;20210;-74
2021/06/20 00:33:07;;;;;;;13.40;12.00;;;25.10;99.90;;;;;;4935265;29;20679;-75
2021/06/20 00:35:34;;;;;;;12.90;11.70;;;25.00;99.90;;;;;;4933984;29;20234;-74
2021/06/20 00:38:00;;;;;;;13.30;11.47;;;24.90;99.90;;;;;;4933125;29;20233;-75
2021/06/20 00:40:29;;;;;;;13.77;11.87;;;24.80;99.90;;;;;;4935339;29;20214;-74
2021/06/20 00:42:56;;;;;;;12.13;10.93;;;24.70;99.90;;;;;;4933926;29;20210;-75
2021/06/20 00:45:23;;;;;;;12.43;11.23;;;24.60;99.90;;;;;;4934110;29;20211;-75
2021/06/20 00:47:53;;;;;;;12.13;10.97;;;24.40;99.90;;;;;;4932593;29;20231;-75
2021/06/20 00:50:20;;;;;;;13.30;12.00;;;24.40;99.90;;;;;;4935345;29;20199;-75
2021/06/20 00:52:46;;;;;;;13.17;11.80;;;24.30;99.90;;;;;;4933542;29;20584;-74
2021/06/20 00:55:14;;;;;;;13.10;11.70;;;24.20;99.90;;;;;;4933833;29;20726;-75
2021/06/20 00:57:43;;;;;;;12.60;11.50;;;24.20;99.90;;;;;;4934970;29;20243;-74
2021/06/20 01:00:12;;;;;;;11.60;10.63;;;24.20;99.90;;;;;;4935026;29;20203;-74
2021/06/20 01:02:39;;;;;;;12.40;11.27;;;24.10;99.90;;;;;;4933669;29;20298;-75
2021/06/20 01:05:07;;;;;;;12.87;11.17;;;24.10;99.90;;;;;;4933268;29;20682;-74
2021/06/20 01:07:34;;;;;;;12.90;11.80;;;24.00;99.90;;;;;;4933802;29;20290;-74
2021/06/20 01:10:02;;;;;;;13.07;11.77;;;24.00;99.90;;;;;;4935052;29;20221;-74
2021/06/20 01:12:30;;;;;;;12.70;11.53;;;24.00;99.90;;;;;;4934640;29;20205;-74
2021/06/20 01:14:58;;;;;;;12.87;11.03;;;24.00;99.90;;;;;;4934819;29;20215;-74
2021/06/20 01:17:25;;;;;;;12.57;11.43;;;23.90;99.90;;;;;;4934704;29;20219;-74
2021/06/20 01:19:52;;;;;;;12.97;11.77;;;23.80;99.90;;;;;;4934872;29;20203;-74
2021/06/20 01:22:23;;;;;;;12.77;11.60;;;23.80;99.90;;;;;;4933417;29;20195;-75
2021/06/20 01:24:52;;;;;;;12.50;11.40;;;23.80;99.90;;;;;;4949186;29;20199;-74
2021/06/20 01:27:19;;;;;;;12.90;11.80;;;23.70;99.90;;;;;;4933189;29;20752;-74
2021/06/20 01:29:48;;;;;;;12.47;11.20;;;23.70;99.90;;;;;;4933248;29;20251;-75
2021/06/20 01:32:16;;;;;;;12.07;11.07;;;23.70;99.90;;;;;;4934484;29;20278;-74
2021/06/20 01:34:44;;;;;;;11.87;10.87;;;23.60;99.90;;;;;;4934371;29;20242;-74
2021/06/20 01:37:13;;;;;;;11.93;10.83;;;23.60;99.90;;;;;;4934460;29;20207;-73
2021/06/20 01:39:41;;;;;;;12.00;10.87;;;23.50;99.90;;;;;;4934294;29;20203;-74
2021/06/20 01:42:12;;;;;;;12.30;11.10;;;23.50;99.90;;;;;;4934375;29;20206;-74
2021/06/20 01:44:48;;;;;;;12.77;11.10;;;23.50;99.90;;;;;;4933121;29;20203;-75
2021/06/20 01:47:15;;;;;;;12.43;11.30;;;23.50;99.90;;;;;;4933980;29;20202;-74
2021/06/20 01:49:42;;;;;;;12.83;10.90;;;23.50;99.90;;;;;;4934465;29;20262;-74
2021/06/20 01:52:09;;;;;;;12.27;11.13;;;23.50;99.90;;;;;;4933977;29;20199;-74
2021/06/20 01:54:36;;;;;;;11.93;10.93;;;23.50;99.90;;;;;;4934177;29;20230;-74
2021/06/20 01:57:06;;;;;;;12.37;11.07;;;23.40;99.90;;;;;;4934213;29;20682;-74
2021/06/20 01:59:33;;;;;;;11.97;10.17;;;23.50;99.90;;;;;;4934113;29;20207;-74
2021/06/20 02:02:01;;;;;;;10.30;9.50;;;23.50;99.90;;;;;;4932778;29;20242;-74
2021/06/20 02:04:28;;;;;;;11.63;9.40;;;23.40;99.90;;;;;;4932616;29;20207;-74
2021/06/20 02:06:54;;;;;;;10.53;9.47;;;23.40;99.90;;;;;;4934157;29;20621;-74
2021/06/20 02:09:21;;;;;;;11.23;10.07;;;23.40;99.90;;;;;;4934265;29;20219;-75
2021/06/20 02:11:48;;;;;;;10.37;9.23;;;23.40;99.90;;;;;;4932846;29;20246;-74
2021/06/20 02:14:18;;;;;;;15.90;9.83;;;23.40;99.90;;;;;;4937376;29;20278;-74
2021/06/20 02:16:45;;;;;;;13.97;9.70;;;23.40;99.90;;;;;;4933886;29;20191;-74
2021/06/20 02:19:11;;;;;;;10.93;9.90;;;23.40;99.90;;;;;;4932783;29;20634;-74
2021/06/20 02:21:38;;;;;;;11.43;9.40;;;23.40;99.90;;;;;;4933811;29;20211;-74
2021/06/20 02:24:06;;;;;;;12.83;9.90;;;23.40;99.90;;;;;;4933865;29;20202;-74
2021/06/20 02:26:32;;;;;;;11.87;9.87;;;23.30;99.90;;;;;;4933944;29;20685;-74
2021/06/20 02:28:59;;;;;;;10.90;8.90;;;23.40;99.90;;;;;;4933835;29;20211;-75
2021/06/20 02:31:27;;;;;;;12.83;9.90;;;23.30;99.90;;;;;;4933878;29;20195;-74
2021/06/20 02:33:54;;;;;;;10.07;8.67;;;23.30;99.90;;;;;;4933807;29;20732;-74
2021/06/20 02:36:21;;;;;;;11.97;9.53;;;23.30;99.90;;;;;;4934028;29;20206;-75
2021/06/20 02:38:48;;;;;;;15.90;9.57;;;23.20;99.90;;;;;;4933853;29;20817;-74
2021/06/20 02:41:15;;;;;;;13.27;9.77;;;23.20;99.90;;;;;;4933804;29;20227;-74
2021/06/20 02:43:42;;;;;;;13.00;10.07;;;23.20;99.90;;;;;;4933483;29;20234;-74
2021/06/20 02:46:09;;;;;;;21.63;9.57;;;23.20;99.90;;;;;;4932653;29;20203;-74
2021/06/20 02:48:37;;;;;;;14.17;9.67;;;23.20;99.90;;;;;;4933632;29;20235;-74
2021/06/20 02:51:04;;;;;;;10.57;9.40;;;23.20;99.90;;;;;;4933647;29;20263;-74
2021/06/20 02:53:31;;;;;;;15.70;9.40;;;23.30;99.90;;;;;;4933562;29;20210;-73
2021/06/20 02:55:58;;;;;;;9.97;8.90;;;23.30;99.90;;;;;;4933462;29;20662;-74
2021/06/20 02:58:25;;;;;;;12.40;9.13;;;23.30;99.90;;;;;;4921623;29;20231;-74
2021/06/20 03:00:51;;;;;;;16.00;9.30;;;23.30;99.90;;;;;;4933677;29;20203;-76
2021/06/20 03:03:18;;;;;;;15.23;8.90;;;23.40;99.90;;;;;;4937630;29;20690;-73
2021/06/20 03:05:46;;;;;;;16.67;9.00;;;23.40;99.90;;;;;;4928968;29;20203;-73
2021/06/20 03:08:13;;;;;;;13.37;9.43;;;23.40;99.90;;;;;;4932784;29;20223;-76
2021/06/20 03:10:40;;;;;;;11.40;9.47;;;23.30;99.90;;;;;;4935013;29;20208;-76
2021/06/20 03:13:08;;;;;;;11.97;9.37;;;23.30;99.90;;;;;;4936643;29;20205;-75
2021/06/20 03:15:38;;;;;;;19.30;10.10;;;23.30;99.90;;;;;;4934626;29;20215;-76
2021/06/20 03:18:05;;;;;;;12.27;9.40;;;23.40;99.90;;;;;;4936189;29;20230;-76
2021/06/20 03:20:32;;;;;;;11.43;8.67;;;23.40;99.90;;;;;;4936695;29;20701;-76
2021/06/20 03:23:01;;;;;;;11.37;8.70;;;23.40;99.90;;;;;;4936385;29;20191;-76
2021/06/20 03:25:27;;;;;;;10.13;9.13;;;23.40;99.90;;;;;;4936296;29;20678;-76
2021/06/20 03:27:55;;;;;;;10.97;8.50;;;23.40;99.90;;;;;;4936523;29;20226;-76
2021/06/20 03:30:24;;;;;;;14.83;8.73;;;23.40;99.90;;;;;;4936541;29;20222;-76
2021/06/20 03:32:51;;;;;;;9.33;8.30;;;23.40;99.90;;;;;;4934211;29;20219;-76
2021/06/20 03:35:17;;;;;;;9.63;7.90;;;23.40;99.90;;;;;;4936421;29;20226;-77
2021/06/20 03:37:44;;;;;;;14.53;9.23;;;23.40;99.90;;;;;;4936211;29;20219;-77
2021/06/20 03:40:13;;;;;;;13.77;8.37;;;23.40;99.90;;;;;;4935718;29;20214;-76
2021/06/20 03:42:40;;;;;;;10.63;8.43;;;23.50;99.90;;;;;;4935882;29;20191;-77
2021/06/20 03:45:08;;;;;;;11.97;8.27;;;23.50;99.90;;;;;;4934720;29;20199;-76
2021/06/20 03:47:35;;;;;;;24.33;9.23;;;23.50;99.90;;;;;;4933204;29;20223;-76
2021/06/20 03:50:03;;;;;;;12.07;8.90;;;23.60;99.90;;;;;;4934281;29;20214;-76
2021/06/20 03:52:30;;;;;;;10.17;8.13;;;23.60;99.90;;;;;;4935990;29;20259;-75
2021/06/20 03:54:57;;;;;;;10.00;8.27;;;23.60;99.90;;;;;;4935114;29;20219;-76
2021/06/20 03:57:26;;;;;;;12.37;8.37;;;23.60;99.90;;;;;;4936266;29;20270;-77
2021/06/20 03:59:53;;;;;;;13.20;9.03;;;23.60;99.90;;;;;;4936648;29;20270;-77
2021/06/20 04:02:20;;;;;;;12.13;8.30;;;23.60;99.90;;;;;;4936779;29;20268;-76
2021/06/20 04:04:47;;;;;;;17.67;8.73;;;23.70;99.90;;;;;;4935747;29;20207;-76
2021/06/20 04:07:14;;;;;;;14.27;8.00;;;23.70;99.90;;;;;;4936856;29;20206;-76
2021/06/20 04:09:42;;;;;;;11.17;7.40;;;23.70;99.90;;;;;;4935489;29;20203;-76
2021/06/20 04:12:11;;;;;;;15.43;7.90;;;23.70;99.90;;;;;;4935513;29;20215;-76
2021/06/20 04:14:39;;;;;;;17.90;7.97;;;23.80;99.90;;;;;;4926900;29;20698;-76
2021/06/20 04:17:06;;;;;;;15.83;8.17;;;23.80;99.90;;;;;;4936628;29;20199;-76
2021/06/20 04:19:33;;;;;;;11.67;7.37;;;23.80;99.90;;;;;;4937111;29;20207;-76
2021/06/20 04:22:00;;;;;;;10.17;7.70;;;23.70;99.90;;;;;;4936174;29;20203;-76
2021/06/20 04:24:27;;;;;;;10.13;6.70;;;23.70;99.90;;;;;;4931336;29;20675;-76
2021/06/20 04:26:55;;;;;;;8.13;6.60;;;23.60;99.90;;;;;;4932715;29;20614;-76
2021/06/20 04:29:22;;;;;;;8.53;6.50;;;23.60;99.90;;;;;;4936613;29;20733;-76
2021/06/20 04:31:50;;;;;;;11.27;6.87;;;23.50;99.90;;;;;;4933361;29;20300;-76
2021/06/20 04:34:17;;;;;;;14.53;7.53;;;23.50;99.90;;;;;;4936984;29;20247;-76
2021/06/20 04:36:44;;;;;;;11.20;7.03;;;23.50;99.90;;;;;;4937720;29;20214;-77
2021/06/20 04:39:10;;;;;;;9.67;6.90;;;23.50;99.90;;;;;;4939818;29;20214;-76
2021/06/20 04:41:39;;;;;;;9.07;6.70;;;23.50;99.90;;;;;;4937519;29;20247;-76
2021/06/20 04:44:42;;;;;;;7.43;6.73;;;23.50;99.90;;;;;;4935964;29;20203;-76
2021/06/20 04:46:55;;;;;;;11.00;6.93;;;23.60;99.90;;;;;;4933829;29;20199;-77
2021/06/20 04:49:22;;;;;;;9.27;6.60;;;23.60;99.90;;;;;;4935627;29;20230;-77
2021/06/20 04:51:48;;;;;;;8.23;7.43;;;23.70;99.90;;;;;;4935806;29;20259;-76
2021/06/20 04:54:15;;;;;;;7.97;6.53;;;23.70;99.90;;;;;;4935490;29;20200;-75
2021/06/20 04:56:43;;;;;;;7.00;6.30;;;23.70;99.90;;;;;;4934575;29;20195;-77
2021/06/20 04:59:10;;;;;;;10.43;7.00;;;23.70;99.90;;;;;;4934204;29;21854;-76
2021/06/20 05:01:38;;;;;;;9.13;7.13;;;23.70;99.90;;;;;;4934311;29;20207;-74
2021/06/20 05:04:07;;;;;;;7.20;6.17;;;23.70;99.90;;;;;;4934982;29;20266;-76
2021/06/20 05:06:35;;;;;;;9.07;6.90;;;23.70;99.90;;;;;;4934954;29;20198;-76
2021/06/20 05:09:01;;;;;;;8.47;6.80;;;23.70;99.90;;;;;;4934829;29;20223;-76
2021/06/20 05:11:28;;;;;;;7.13;6.30;;;23.80;99.90;;;;;;4934382;29;20270;-76
2021/06/20 05:13:55;;;;;;;8.43;6.60;;;24.00;99.90;;;;;;4934373;29;20203;-76
2021/06/20 05:16:22;;;;;;;7.40;6.70;;;24.10;99.90;;;;;;4934542;29;20231;-76
2021/06/20 05:18:49;;;;;;;6.80;6.10;;;24.20;99.90;;;;;;4931217;29;20234;-76
2021/06/20 05:21:17;;;;;;;8.43;6.70;;;24.30;99.90;;;;;;4935169;29;20747;-75
2021/06/20 05:23:44;;;;;;;9.93;7.00;;;24.40;99.90;;;;;;4932482;29;20470;-76
2021/06/20 05:26:11;;;;;;;9.37;6.50;;;24.60;99.90;;;;;;4934630;29;20274;-76
2021/06/20 05:28:38;;;;;;;8.77;6.20;;;24.70;99.90;;;;;;4932330;29;20234;-76
2021/06/20 05:31:05;;;;;;;8.67;6.77;;;24.90;99.90;;;;;;4930783;29;20199;-75
2021/06/20 05:33:31;;;;;;;11.93;7.20;;;25.20;99.90;;;;;;4926626;29;20262;-76
2021/06/20 05:35:58;;;;;;;9.37;6.40;;;25.40;99.90;;;;;;4926648;29;20223;-76
2021/06/20 05:38:26;;;;;;;9.97;6.80;;;25.50;99.90;;;;;;4942992;28;20228;-76
2021/06/20 05:40:53;;;;;;;9.47;7.33;;;25.70;99.90;;;;;;4929808;29;20221;-76
2021/06/20 05:43:20;;;;;;;9.87;6.40;;;25.70;99.90;;;;;;4927880;29;20198;-75
2021/06/20 05:45:47;;;;;;;10.70;7.30;;;25.80;99.90;;;;;;4929219;29;20205;-77
2021/06/20 05:58:46;;;;;;;7.00;6.30;;;27.40;99.90;;;;;;4856130;29;20237;-80
2021/06/20 06:01:21;;;;;;;11.27;6.47;;;27.30;99.90;;;;;;4895380;29;20215;-81
2021/06/20 06:03:54;;;;;;;8.83;6.03;;;27.20;99.90;;;;;;4908183;29;20659;-80
2021/06/20 06:06:33;;;;;;;8.37;6.00;;;27.20;99.90;;;;;;4893032;29;20187;-80
2021/06/20 06:09:07;;;;;;;8.77;5.97;;;27.20;99.90;;;;;;4900786;29;20741;-78
2021/06/20 06:12:23;;;;;;;7.10;4.37;;;27.30;99.90;;;;;;4903303;29;20200;-79
2021/06/20 06:18:22;;;;;;;8.30;5.60;;;27.50;99.90;;;;;;4899917;29;20741;-78
2021/06/20 06:21:07;;;;;;;7.63;5.67;;;27.50;99.90;;;;;;4896852;29;20228;-78
2021/06/20 06:27:01;;;;;;;6.87;4.47;;;27.70;99.90;;;;;;4894533;29;20212;-78
2021/06/20 06:29:47;;;;;;;13.83;6.40;;;27.70;99.90;;;;;;4907367;29;20255;-77
2021/06/20 06:32:39;;;;;;;12.20;4.97;;;27.90;99.90;;;;;;4908410;29;20204;-78
2021/06/20 06:35:39;;;;;;;10.73;5.07;;;28.30;99.90;;;;;;4898335;29;20870;-77
2021/06/20 06:38:19;;;;;;;12.97;4.70;;;28.00;99.90;;;;;;4914529;29;20240;-77
2021/06/20 06:41:17;;;;;;;7.00;4.93;;;27.70;99.90;;;;;;4912594;29;20215;-76
2021/06/20 06:43:56;;;;;;;8.10;5.70;;;27.40;99.90;;;;;;4901901;29;20213;-78
2021/06/20 06:52:28;;;;;;;;;;;;;;;;;;;;;
2021/06/20 06:55:04;;;;;;;6.23;5.63;;;26.70;99.90;;;;;;4899289;29;20197;-78
2021/06/20 06:57:57;;;;;;;7.57;5.50;;;26.50;99.90;;;;;;4916028;29;20216;-79
2021/06/20 07:00:39;;;;;;;8.33;5.67;;;26.40;99.90;;;;;;4897799;29;20265;-80
2021/06/20 07:03:23;;;;;;;8.77;5.10;;;26.30;99.90;;;;;;4905544;29;20219;-79
2021/06/20 07:06:11;;;;;;;7.17;5.43;;;26.10;99.90;;;;;;4898764;29;20204;-80
2021/06/20 07:09:36;;;;;;;9.40;5.30;;;25.90;99.90;;;;;;4901745;29;20225;-80
2021/06/20 07:12:03;;;;;;;8.70;5.60;;;25.70;99.90;;;;;;4905435;29;20208;-77
2021/06/20 07:14:52;;;;;;;12.43;6.03;;;25.50;99.90;;;;;;4896958;29;20200;-78
2021/06/20 07:17:59;;;;;;;;;;;;;;;;;;;;;
2021/06/20 07:21:16;;;;;;;6.87;6.07;;;25.30;99.90;;;;;;4894598;29;20204;-78
2021/06/20 07:27:30;;;;;;;6.33;5.70;;;25.30;99.90;;;;;;4900297;29;20254;-79
2021/06/20 08:05:59;;;;;;;5.73;5.13;;;26.00;99.90;;;;;;4951538;28;20225;-78
2021/06/20 08:08:37;;;;;;;5.73;5.20;;;26.10;99.90;;;;;;4943915;29;20363;-80
2021/06/20 08:11:04;;;;;;;6.67;5.07;;;26.20;99.90;;;;;;4950956;28;20203;-80
2021/06/20 08:13:31;;;;;;;5.77;5.17;;;26.30;99.90;;;;;;4949871;28;20215;-79
2021/06/20 08:15:58;;;;;;;6.10;5.10;;;26.40;99.90;;;;;;4955979;28;20728;-80
2021/06/20 08:18:25;;;;;;;5.83;5.33;;;26.50;99.90;;;;;;4955474;28;20740;-80
2021/06/20 08:20:53;;;;;;;5.60;5.20;;;26.50;99.90;;;;;;4957269;28;20202;-79
2021/06/20 08:23:20;;;;;;;5.50;5.00;;;26.70;99.90;;;;;;4955522;28;20740;-80
2021/06/20 08:25:47;;;;;;;5.40;4.90;;;26.80;99.90;;;;;;4955723;29;20701;-79
2021/06/20 08:28:13;;;;;;;4.97;4.33;;;26.80;99.90;;;;;;4957080;28;20641;-80
2021/06/20 08:30:40;;;;;;;5.13;4.60;;;26.80;99.90;;;;;;4971351;28;20217;-79
2021/06/20 08:33:07;;;;;;;6.80;5.20;;;26.90;99.90;;;;;;4962707;28;20226;-80
2021/06/20 08:35:34;;;;;;;5.73;5.27;;;27.20;99.90;;;;;;4955560;29;20261;-79
2021/06/20 08:38:02;;;;;;;4.77;4.33;;;27.40;99.90;;;;;;4952352;28;20219;-80
2021/06/20 08:40:29;;;;;;;4.60;4.20;;;27.60;99.90;;;;;;4938106;28;20196;-80
2021/06/20 08:42:58;;;;;;;4.80;4.40;;;27.70;99.90;;;;;;4956199;28;20202;-79
2021/06/20 08:45:26;;;;;;;5.37;4.63;;;27.70;99.90;;;;;;4956349;29;20670;-79
2021/06/20 08:47:53;;;;;;;4.60;4.20;;;27.70;99.90;;;;;;4956000;28;20246;-80
2021/06/20 08:50:20;;;;;;;4.90;4.50;;;27.70;99.90;;;;;;4956309;28;20201;-79
2021/06/20 08:52:47;;;;;;;4.73;4.33;;;27.70;99.90;;;;;;4954662;28;20213;-80
2021/06/20 08:55:18;;;;;;;5.10;4.47;;;27.70;99.90;;;;;;4956576;28;20667;-80
2021/06/20 08:57:48;;;;;;;6.60;4.27;;;27.60;99.90;;;;;;4953736;28;20319;-79
2021/06/20 09:00:17;;;;;;;6.27;4.87;;;27.70;99.90;;;;;;4953710;28;20231;-79
2021/06/20 09:02:56;;;;;;;5.60;5.10;;;27.70;99.90;;;;;;4954759;29;20202;-79
2021/06/20 09:05:22;;;;;;;5.97;5.10;;;27.80;99.90;;;;;;4951242;29;20205;-80
2021/06/20 09:07:49;;;;;;;6.33;5.30;;;27.90;99.90;;;;;;4950663;28;20199;-79
2021/06/20 09:10:19;;;;;;;5.13;4.60;;;28.00;99.90;;;;;;4942232;28;20211;-79
2021/06/20 09:12:49;;;;;;;5.97;5.17;;;28.20;99.90;;;;;;4943655;29;20202;-79
2021/06/20 09:15:19;;;;;;;5.50;5.00;;;28.40;99.90;;;;;;4953299;28;20604;-80
2021/06/20 09:17:52;;;;;;;5.10;4.60;;;28.50;99.90;;;;;;4952649;28;20309;-79
2021/06/20 09:20:30;;;;;;;5.53;4.50;;;28.50;99.90;;;;;;4953199;29;20671;-79
2021/06/20 09:22:58;;;;;;;6.03;4.70;;;28.40;99.90;;;;;;4933898;29;20206;-80
2021/06/20 09:25:29;;;;;;;5.73;4.80;;;28.20;99.90;;;;;;4951063;28;20202;-79
2021/06/20 09:27:57;;;;;;;6.13;5.53;;;28.10;99.90;;;;;;4954391;28;20225;-79
2021/06/20 09:30:27;;;;;;;5.90;5.30;;;28.10;99.90;;;;;;4953073;28;20210;-79
2021/06/20 09:32:57;;;;;;;5.67;4.90;;;28.20;99.90;;;;;;4952868;28;20198;-79
2021/06/20 09:35:25;;;;;;;7.37;5.10;;;28.50;99.90;;;;;;4954113;28;20206;-79
2021/06/20 09:37:54;;;;;;;6.07;5.33;;;28.60;99.90;;;;;;4953052;28;20338;-79
2021/06/20 09:40:22;;;;;;;6.00;4.97;;;28.70;99.90;;;;;;4954259;28;20203;-79
2021/06/20 09:42:50;;;;;;;8.73;5.07;;;29.00;99.90;;;;;;4946620;28;20210;-79
2021/06/20 09:45:31;;;;;;;6.30;5.47;;;29.10;99.90;;;;;;4953073;28;20221;-80
2021/06/20 09:48:00;;;;;;;6.03;4.80;;;29.10;98.50;;;;;;4961192;28;20301;-78
2021/06/20 09:50:38;;;;;;;5.20;4.63;;;29.30;98.20;;;;;;4949928;28;20207;-79
2021/06/20 09:53:07;;;;;;;4.90;4.50;;;29.50;97.40;;;;;;4943029;28;20234;-79
2021/06/20 09:55:34;;;;;;;5.47;4.87;;;30.10;96.70;;;;;;4954557;28;20273;-80
2021/06/20 09:58:04;;;;;;;5.43;4.70;;;30.30;95.00;;;;;;4953556;28;20214;-80
2021/06/20 10:00:40;;;;;;;4.73;4.03;;;30.80;95.20;;;;;;4952999;29;20293;-79
2021/06/20 10:03:08;;;;;;;5.03;4.53;;;30.90;94.90;;;;;;4933912;29;20289;-78
2021/06/20 10:05:37;;;;;;;6.13;4.20;;;31.10;93.40;;;;;;4948849;28;20629;-79
2021/06/20 10:08:05;;;;;;;6.07;3.50;;;31.40;93.80;;;;;;4953627;28;20268;-80
2021/06/20 10:10:32;;;;;;;5.37;3.90;;;31.40;92.90;;;;;;4962819;28;20205;-79
2021/06/20 10:13:02;;;;;;;5.70;4.00;;;31.30;91.70;;;;;;4968328;28;20749;-79
2021/06/20 10:15:30;;;;;;;10.37;4.73;;;31.00;91.90;;;;;;4954138;28;20709;-79
2021/06/20 10:18:02;;;;;;;6.30;4.80;;;30.80;91.50;;;;;;4956292;28;20720;-79
2021/06/20 10:20:36;;;;;;;7.93;5.00;;;30.90;92.50;;;;;;4956451;29;20202;-79
2021/06/20 10:23:04;;;;;;;12.60;5.30;;;30.70;92.30;;;;;;4960383;29;20229;-80
2021/06/20 10:25:34;;;;;;;9.73;5.57;;;30.90;92.40;;;;;;4953878;28;20255;-79
2021/06/20 10:28:07;;;;;;;9.07;5.37;;;31.10;91.10;;;;;;4956467;28;20229;-80
2021/06/20 10:30:36;;;;;;;7.50;5.70;;;31.10;92.40;;;;;;4956189;28;20736;-79
2021/06/20 10:33:07;;;;;;;7.77;5.37;;;31.10;93.00;;;;;;4959255;28;20198;-79
2021/06/20 10:35:35;;;;;;;10.30;5.47;;;31.00;92.50;;;;;;4957052;29;20203;-79
2021/06/20 10:38:02;;;;;;;7.77;5.57;;;30.90;91.60;;;;;;4955680;28;20752;-80
2021/06/20 10:40:31;;;;;;;6.33;5.07;;;30.90;92.00;;;;;;4953934;28;20634;-80
2021/06/20 10:43:00;;;;;;;8.13;5.20;;;30.90;91.60;;;;;;4961984;28;20222;-81
2021/06/20 10:45:30;;;;;;;8.10;5.63;;;30.80;91.50;;;;;;4963057;28;20260;-81
2021/06/20 10:48:00;;;;;;;7.30;5.30;;;30.80;93.10;;;;;;4962872;28;20246;-81
2021/06/20 10:50:38;;;;;;;9.07;5.90;;;30.90;92.90;;;;;;4961143;29;20646;-80
2021/06/20 10:53:07;;;;;;;8.33;5.60;;;30.90;93.40;;;;;;4958784;28;20214;-81
2021/06/20 10:55:46;;;;;;;8.60;5.40;;;31.20;93.10;;;;;;4957648;28;20203;-80
2021/06/20 10:58:22;;;;;;;12.57;6.10;;;31.60;93.20;;;;;;4957008;28;20277;-81
2021/06/20 11:00:50;;;;;;;9.57;6.43;;;31.70;93.20;;;;;;4959845;28;20213;-81
2021/06/20 11:03:26;;;;;;;10.20;5.80;;;31.40;93.30;;;;;;4959984;28;20234;-80
2021/06/20 11:05:54;;;;;;;12.23;6.00;;;31.50;92.10;;;;;;4959955;28;20273;-80
2021/06/20 11:08:35;;;;;;;11.37;6.37;;;31.10;92.60;;;;;;4961402;28;20223;-80
2021/06/20 11:11:17;;;;;;;11.70;6.00;;;31.50;92.50;;;;;;4960986;28;20198;-80
2021/06/20 11:13:46;;;;;;;9.37;5.73;;;31.20;92.50;;;;;;4961271;28;20233;-80
2021/06/20 11:16:24;;;;;;;8.17;5.87;;;31.30;93.60;;;;;;4959541;28;20262;-80
2021/06/20 11:19:08;;;;;;;9.27;5.70;;;31.30;92.90;;;;;;4961143;29;20221;-80
2021/06/20 11:21:39;;;;;;;12.23;6.93;;;31.50;91.90;;;;;;4950218;28;20195;-80
2021/06/20 11:24:07;;;;;;;13.33;6.83;;;31.40;92.50;;;;;;4959972;28;20289;-80
2021/06/20 11:26:38;;;;;;;15.43;7.17;;;31.30;92.50;;;;;;4961925;28;20230;-80
2021/06/20 11:29:07;;;;;;;15.40;6.60;;;31.10;92.30;;;;;;4963381;28;20226;-79
2021/06/20 11:31:45;;;;;;;12.73;6.90;;;30.80;93.50;;;;;;4952418;28;20199;-80
2021/06/20 11:34:14;;;;;;;10.00;6.50;;;30.90;93.40;;;;;;4958938;28;20315;-80
2021/06/20 11:36:42;;;;;;;12.67;6.20;;;30.90;93.00;;;;;;4957781;28;20673;-80
2021/06/20 11:39:11;;;;;;;12.50;6.97;;;31.00;93.40;;;;;;4957995;29;20317;-80
2021/06/20 11:41:43;;;;;;;13.87;6.70;;;31.10;93.20;;;;;;4958735;28;20294;-80
2021/06/20 11:44:10;;;;;;;15.63;7.37;;;31.20;92.90;;;;;;4957260;28;20261;-80
2021/06/20 11:46:41;;;;;;;13.23;6.50;;;31.20;93.10;;;;;;4969236;28;20202;-80
2021/06/20 11:49:10;;;;;;;14.03;7.30;;;31.30;92.60;;;;;;4971741;23;20270;-75
2021/06/20 11:51:41;;;;;;;14.83;6.90;;;31.30;92.00;;;;;;4936107;29;20195;-75
2021/06/20 11:54:19;;;;;;;19.20;7.13;;;31.40;93.40;;;;;;4935278;29;20199;-76
2021/06/20 11:56:49;;;;;;;10.60;6.37;;;31.30;92.80;;;;;;4936430;29;20713;-76
2021/06/20 11:59:28;;;;;;;11.47;6.63;;;31.30;92.60;;;;;;4936423;29;20219;-76
2021/06/20 12:01:56;;;;;;;10.73;6.33;;;31.40;93.20;;;;;;4934991;29;20191;-75
2021/06/20 12:04:24;;;;;;;24.07;7.93;;;31.30;93.30;;;;;;4936322;29;20199;-76
2021/06/20 12:06:53;;;;;;;18.87;7.33;;;30.90;92.80;;;;;;4931961;29;20203;-75
2021/06/20 12:09:22;;;;;;;10.73;6.37;;;30.80;94.00;;;;;;4936089;29;20226;-75
2021/06/20 12:11:58;;;;;;;14.23;7.10;;;30.60;94.00;;;;;;4924429;29;20203;-75
2021/06/20 12:14:27;;;;;;;17.53;7.67;;;30.60;94.00;;;;;;4934809;29;20242;-75
2021/06/20 12:16:55;;;;;;;16.13;7.50;;;30.50;95.20;;;;;;4935990;29;20686;-75
2021/06/20 12:19:23;;;;;;;19.57;8.10;;;30.20;94.10;;;;;;4934577;29;20222;-75
2021/06/20 12:22:05;;;;;;;13.93;7.27;;;30.20;94.20;;;;;;4949268;28;20203;-75
2021/06/20 12:24:36;;;;;;;21.63;7.47;;;30.40;93.90;;;;;;4935772;29;20249;-75
2021/06/20 12:27:04;;;;;;;11.60;6.87;;;30.60;93.20;;;;;;4935650;29;20748;-75
2021/06/20 12:29:32;;;;;;;25.57;8.43;;;30.80;94.00;;;;;;4935749;29;20239;-75
2021/06/20 12:32:01;;;;;;;16.13;7.53;;;30.60;93.00;;;;;;4935504;29;20208;-75
2021/06/20 12:34:39;;;;;;;15.13;7.20;;;30.60;94.80;;;;;;4935364;29;20438;-75
2021/06/20 12:37:08;;;;;;;13.73;7.10;;;30.60;94.60;;;;;;4935558;29;20211;-75
2021/06/20 12:39:47;;;;;;;13.03;8.03;;;30.60;93.90;;;;;;4935509;29;20307;-75
2021/06/20 12:42:14;;;;;;;15.87;7.27;;;30.40;94.00;;;;;;4921765;29;20601;-75
2021/06/20 12:44:50;;;;;;;24.00;8.57;;;30.10;94.00;;;;;;4935207;29;20694;-75
2021/06/20 12:47:28;;;;;;;16.00;6.90;;;29.90;93.80;;;;;;4934083;29;20203;-75
2021/06/20 12:49:54;;;;;;;20.50;8.07;;;29.80;94.70;;;;;;4933977;29;20821;-75
2021/06/20 12:52:28;;;;;;;16.80;7.67;;;29.90;94.20;;;;;;4935271;29;20207;-75
2021/06/20 12:54:56;;;;;;;28.93;8.80;;;29.80;94.50;;;;;;4928119;29;20195;-75
2021/06/20 12:57:25;;;;;;;15.20;7.50;;;30.00;94.90;;;;;;4935186;29;20215;-73
2021/06/20 12:59:54;;;;;;;18.10;7.67;;;30.00;94.80;;;;;;4933801;29;20235;-74
2021/06/20 13:02:26;;;;;;;22.40;8.03;;;30.10;95.00;;;;;;4933827;29;20207;-74
2021/06/20 13:04:54;;;;;;;15.20;7.50;;;30.10;94.60;;;;;;4935185;29;20199;-74
2021/06/20 13:07:40;;;;;;;13.33;7.67;;;30.00;93.80;;;;;;4934985;29;20195;-74
2021/06/20 13:10:10;;;;;;;12.77;7.13;;;30.10;93.30;;;;;;4933801;29;20233;-74
2021/06/20 13:12:37;;;;;;;10.50;6.73;;;30.30;94.00;;;;;;4934845;29;20204;-74
2021/06/20 13:15:09;;;;;;;13.97;6.83;;;30.40;93.60;;;;;;4934944;29;20230;-74
2021/06/20 13:17:36;;;;;;;24.37;8.87;;;30.50;93.00;;;;;;4934862;29;20259;-74
2021/06/20 13:20:05;;;;;;;24.50;8.40;;;30.10;93.40;;;;;;4933369;29;20250;-74
2021/06/20 13:22:32;;;;;;;20.97;9.63;;;29.90;94.30;;;;;;4933498;29;20202;-73
2021/06/20 13:25:00;;;;;;;17.40;7.80;;;29.90;94.10;;;;;;4933528;29;20222;-74
2021/06/20 13:27:27;;;;;;;16.93;7.57;;;30.00;93.90;;;;;;4934630;29;20203;-74
2021/06/20 13:29:54;;;;;;;17.87;7.60;;;30.30;94.90;;;;;;4933341;29;20714;-74
2021/06/20 13:32:21;;;;;;;14.73;7.27;;;30.40;94.80;;;;;;4933191;29;20211;-74
2021/06/20 13:34:48;;;;;;;21.40;7.47;;;30.30;93.30;;;;;;4934538;29;20196;-74
2021/06/20 13:37:14;;;;;;;15.47;7.30;;;30.30;94.10;;;;;;4934534;29;20263;-74
2021/06/20 13:39:42;;;;;;;22.43;8.40;;;30.40;94.50;;;;;;4934307;29;20726;-74
2021/06/20 13:42:10;;;;;;;20.03;8.23;;;30.50;93.60;;;;;;4933182;29;20207;-74
2021/06/20 13:44:37;;;;;;;22.50;8.83;;;30.40;94.10;;;;;;4932624;29;20210;-74
2021/06/20 13:47:04;;;;;;;21.53;8.13;;;30.40;93.70;;;;;;4934220;29;20207;-74
2021/06/20 13:49:32;;;;;;;14.67;7.63;;;30.10;93.70;;;;;;4932844;29;20222;-74
2021/06/20 13:51:59;;;;;;;15.97;7.20;;;30.20;95.00;;;;;;4932942;29;20721;-74
2021/06/20 13:54:27;;;;;;;15.80;7.60;;;30.30;94.30;;;;;;4933090;29;20199;-74
2021/06/20 13:56:54;;;;;;;19.40;8.17;;;30.20;94.90;;;;;;4934448;29;20198;-75
2021/06/20 13:59:22;;;;;;;17.60;7.83;;;30.10;93.90;;;;;;4932668;29;20339;-74